sensor_id;sensor_type;location;lat;lon;timestamp;P1;durP1;ratioP1;P2;durP2;ratioP2
24521;SDS011;12680;57.804;12.190;2023-03-24T00:00:03;22.50;;;3.75;;
24521;SDS011;12680;57.804;12.190;2023-03-24T00:02:39;24.30;;;3.80;;
24521;SDS011;12680;57.804;12.190;2023-03-24T00:05:08;32.38;;;4.05;;
24521;SDS011;12680;57.804;12.190;2023-03-24T00:07:43;27.35;;;4.13;;
24521;SDS011;12680;57.804;12.190;2023-03-24T00:10:18;33.55;;;4.38;;
24521;SDS011;12680;57.804;12.190;2023-03-24T00:12:48;25.65;;;4.68;;
24521;SDS011;12680;57.804;12.190;2023-03-24T00:15:17;37.08;;;4.80;;
24521;SDS011;12680;57.804;12.190;2023-03-24T00:17:47;25.77;;;4.40;;
24521;SDS011;12680;57.804;12.190;2023-03-24T00:20:18;28.38;;;4.55;;
24521;SDS011;12680;57.804;12.190;2023-03-24T00:22:47;27.77;;;4.05;;
24521;SDS011;12680;57.804;12.190;2023-03-24T00:25:17;23.60;;;4.03;;
24521;SDS011;12680;57.804;12.190;2023-03-24T00:27:48;31.48;;;4.85;;
24521;SDS011;12680;57.804;12.190;2023-03-24T00:30:17;29.02;;;5.28;;
24521;SDS011;12680;57.804;12.190;2023-03-24T00:32:44;28.85;;;4.10;;
24521;SDS011;12680;57.804;12.190;2023-03-24T00:35:12;30.45;;;5.25;;
24521;SDS011;12680;57.804;12.190;2023-03-24T00:37:41;26.55;;;4.85;;
24521;SDS011;12680;57.804;12.190;2023-03-24T00:40:11;27.52;;;4.53;;
24521;SDS011;12680;57.804;12.190;2023-03-24T00:42:42;23.65;;;4.47;;
24521;SDS011;12680;57.804;12.190;2023-03-24T00:45:12;26.55;;;4.97;;
24521;SDS011;12680;57.804;12.190;2023-03-24T00:47:40;23.38;;;4.00;;
24521;SDS011;12680;57.804;12.190;2023-03-24T00:50:14;24.02;;;4.82;;
24521;SDS011;12680;57.804;12.190;2023-03-24T00:52:43;29.85;;;4.18;;
24521;SDS011;12680;57.804;12.190;2023-03-24T00:55:13;21.83;;;4.25;;
24521;SDS011;12680;57.804;12.190;2023-03-24T00:57:45;28.63;;;4.97;;
24521;SDS011;12680;57.804;12.190;2023-03-24T01:00:18;24.25;;;4.03;;
24521;SDS011;12680;57.804;12.190;2023-03-24T01:02:47;32.37;;;5.37;;
24521;SDS011;12680;57.804;12.190;2023-03-24T01:05:20;37.25;;;4.75;;
24521;SDS011;12680;57.804;12.190;2023-03-24T01:07:47;25.23;;;4.18;;
24521;SDS011;12680;57.804;12.190;2023-03-24T01:10:18;28.15;;;4.53;;
24521;SDS011;12680;57.804;12.190;2023-03-24T01:12:47;28.63;;;5.07;;
24521;SDS011;12680;57.804;12.190;2023-03-24T01:15:15;34.42;;;4.72;;
24521;SDS011;12680;57.804;12.190;2023-03-24T01:17:43;37.20;;;5.75;;
24521;SDS011;12680;57.804;12.190;2023-03-24T01:20:12;29.85;;;4.72;;
24521;SDS011;12680;57.804;12.190;2023-03-24T01:22:40;34.15;;;5.30;;
24521;SDS011;12680;57.804;12.190;2023-03-24T01:25:13;27.58;;;5.18;;
24521;SDS011;12680;57.804;12.190;2023-03-24T01:27:42;32.97;;;4.95;;
24521;SDS011;12680;57.804;12.190;2023-03-24T01:30:14;27.23;;;4.60;;
24521;SDS011;12680;57.804;12.190;2023-03-24T01:32:42;33.88;;;5.30;;
24521;SDS011;12680;57.804;12.190;2023-03-24T01:35:09;33.72;;;4.88;;
24521;SDS011;12680;57.804;12.190;2023-03-24T01:37:37;34.78;;;4.97;;
24521;SDS011;12680;57.804;12.190;2023-03-24T01:40:04;31.65;;;5.07;;
24521;SDS011;12680;57.804;12.190;2023-03-24T01:42:35;32.42;;;5.55;;
24521;SDS011;12680;57.804;12.190;2023-03-24T01:48:24;33.95;;;4.75;;
24521;SDS011;12680;57.804;12.190;2023-03-24T01:51:41;32.47;;;4.82;;
24521;SDS011;12680;57.804;12.190;2023-03-24T01:53:53;33.90;;;5.57;;
24521;SDS011;12680;57.804;12.190;2023-03-24T01:56:23;26.38;;;5.10;;
24521;SDS011;12680;57.804;12.190;2023-03-24T01:58:52;39.55;;;5.18;;
24521;SDS011;12680;57.804;12.190;2023-03-24T02:01:23;36.70;;;5.80;;
24521;SDS011;12680;57.804;12.190;2023-03-24T02:03:55;33.75;;;4.10;;
24521;SDS011;12680;57.804;12.190;2023-03-24T02:06:29;34.10;;;5.00;;
24521;SDS011;12680;57.804;12.190;2023-03-24T02:08:59;29.67;;;5.32;;
24521;SDS011;12680;57.804;12.190;2023-03-24T02:11:30;38.42;;;5.72;;
24521;SDS011;12680;57.804;12.190;2023-03-24T02:13:58;28.70;;;4.63;;
24521;SDS011;12680;57.804;12.190;2023-03-24T02:16:32;31.67;;;4.93;;
24521;SDS011;12680;57.804;12.190;2023-03-24T02:30:31;27.33;;;5.63;;
24521;SDS011;12680;57.804;12.190;2023-03-24T02:44:41;33.22;;;5.72;;
24521;SDS011;12680;57.804;12.190;2023-03-24T02:50:53;28.50;;;4.57;;
24521;SDS011;12680;57.804;12.190;2023-03-24T02:56:14;31.20;;;5.93;;
24521;SDS011;12680;57.804;12.190;2023-03-24T02:59:05;32.65;;;5.05;;
24521;SDS011;12680;57.804;12.190;2023-03-24T03:01:37;38.38;;;5.25;;
24521;SDS011;12680;57.804;12.190;2023-03-24T03:04:11;27.70;;;5.50;;
24521;SDS011;12680;57.804;12.190;2023-03-24T03:06:43;39.80;;;5.80;;
24521;SDS011;12680;57.804;12.190;2023-03-24T03:09:15;30.23;;;6.38;;
24521;SDS011;12680;57.804;12.190;2023-03-24T03:11:45;29.55;;;4.55;;
24521;SDS011;12680;57.804;12.190;2023-03-24T03:14:16;28.53;;;4.87;;
24521;SDS011;12680;57.804;12.190;2023-03-24T03:16:52;26.77;;;5.25;;
24521;SDS011;12680;57.804;12.190;2023-03-24T03:19:32;33.92;;;5.15;;
24521;SDS011;12680;57.804;12.190;2023-03-24T03:22:14;25.35;;;5.32;;
24521;SDS011;12680;57.804;12.190;2023-03-24T03:24:46;32.08;;;5.80;;
24521;SDS011;12680;57.804;12.190;2023-03-24T03:27:22;37.60;;;5.38;;
24521;SDS011;12680;57.804;12.190;2023-03-24T03:29:59;34.45;;;5.13;;
24521;SDS011;12680;57.804;12.190;2023-03-24T03:32:32;35.03;;;5.10;;
24521;SDS011;12680;57.804;12.190;2023-03-24T03:40:37;32.97;;;5.47;;
24521;SDS011;12680;57.804;12.190;2023-03-24T03:43:08;26.08;;;5.07;;
24521;SDS011;12680;57.804;12.190;2023-03-24T03:45:35;33.78;;;5.63;;
24521;SDS011;12680;57.804;12.190;2023-03-24T03:48:01;25.40;;;5.43;;
24521;SDS011;12680;57.804;12.190;2023-03-24T03:50:29;33.03;;;4.68;;
24521;SDS011;12680;57.804;12.190;2023-03-24T03:52:56;32.00;;;5.18;;
24521;SDS011;12680;57.804;12.190;2023-03-24T03:55:23;32.95;;;5.53;;
24521;SDS011;12680;57.804;12.190;2023-03-24T03:57:50;21.15;;;4.93;;
24521;SDS011;12680;57.804;12.190;2023-03-24T04:00:18;28.27;;;4.70;;
24521;SDS011;12680;57.804;12.190;2023-03-24T04:05:52;34.25;;;5.68;;
24521;SDS011;12680;57.804;12.190;2023-03-24T04:14:17;22.67;;;4.90;;
24521;SDS011;12680;57.804;12.190;2023-03-24T04:17:08;24.05;;;5.45;;
24521;SDS011;12680;57.804;12.190;2023-03-24T04:28:16;29.50;;;6.15;;
24521;SDS011;12680;57.804;12.190;2023-03-24T04:30:53;21.20;;;4.47;;
24521;SDS011;12680;57.804;12.190;2023-03-24T04:36:10;34.13;;;5.32;;
24521;SDS011;12680;57.804;12.190;2023-03-24T04:38:47;27.30;;;4.80;;
24521;SDS011;12680;57.804;12.190;2023-03-24T04:41:18;18.95;;;4.05;;
24521;SDS011;12680;57.804;12.190;2023-03-24T04:43:47;27.95;;;5.05;;
24521;SDS011;12680;57.804;12.190;2023-03-24T04:46:14;17.98;;;4.13;;
24521;SDS011;12680;57.804;12.190;2023-03-24T04:48:44;29.33;;;5.03;;
24521;SDS011;12680;57.804;12.190;2023-03-24T04:51:14;34.90;;;5.50;;
24521;SDS011;12680;57.804;12.190;2023-03-24T04:53:43;24.55;;;4.93;;
24521;SDS011;12680;57.804;12.190;2023-03-24T04:58:43;21.20;;;4.80;;
24521;SDS011;12680;57.804;12.190;2023-03-24T05:01:10;19.90;;;5.25;;
24521;SDS011;12680;57.804;12.190;2023-03-24T05:03:37;36.05;;;5.38;;
24521;SDS011;12680;57.804;12.190;2023-03-24T05:06:04;33.97;;;5.80;;
24521;SDS011;12680;57.804;12.190;2023-03-24T05:08:31;27.10;;;5.05;;
24521;SDS011;12680;57.804;12.190;2023-03-24T05:10:58;31.35;;;5.47;;
24521;SDS011;12680;57.804;12.190;2023-03-24T05:13:25;25.40;;;5.07;;
24521;SDS011;12680;57.804;12.190;2023-03-24T05:15:52;23.13;;;4.82;;
24521;SDS011;12680;57.804;12.190;2023-03-24T05:18:19;25.75;;;5.28;;
24521;SDS011;12680;57.804;12.190;2023-03-24T05:20:46;22.85;;;5.38;;
24521;SDS011;12680;57.804;12.190;2023-03-24T05:23:13;33.05;;;6.05;;
24521;SDS011;12680;57.804;12.190;2023-03-24T05:25:40;22.60;;;4.85;;
24521;SDS011;12680;57.804;12.190;2023-03-24T05:28:07;24.80;;;4.93;;
24521;SDS011;12680;57.804;12.190;2023-03-24T05:30:33;25.40;;;5.38;;
24521;SDS011;12680;57.804;12.190;2023-03-24T05:33:00;20.33;;;4.88;;
24521;SDS011;12680;57.804;12.190;2023-03-24T05:35:27;23.40;;;5.25;;
24521;SDS011;12680;57.804;12.190;2023-03-24T05:37:54;26.70;;;5.53;;
24521;SDS011;12680;57.804;12.190;2023-03-24T05:40:21;25.88;;;5.85;;
24521;SDS011;12680;57.804;12.190;2023-03-24T05:42:48;28.50;;;5.28;;
24521;SDS011;12680;57.804;12.190;2023-03-24T05:45:15;25.02;;;4.93;;
24521;SDS011;12680;57.804;12.190;2023-03-24T05:47:42;19.10;;;4.70;;
24521;SDS011;12680;57.804;12.190;2023-03-24T05:50:09;25.33;;;5.30;;
24521;SDS011;12680;57.804;12.190;2023-03-24T05:52:36;16.55;;;4.82;;
24521;SDS011;12680;57.804;12.190;2023-03-24T05:55:03;24.60;;;6.25;;
24521;SDS011;12680;57.804;12.190;2023-03-24T05:57:30;18.42;;;4.85;;
24521;SDS011;12680;57.804;12.190;2023-03-24T05:59:57;26.02;;;5.50;;
24521;SDS011;12680;57.804;12.190;2023-03-24T06:02:24;21.00;;;5.55;;
24521;SDS011;12680;57.804;12.190;2023-03-24T06:04:51;17.98;;;5.05;;
24521;SDS011;12680;57.804;12.190;2023-03-24T06:07:18;17.73;;;4.65;;
24521;SDS011;12680;57.804;12.190;2023-03-24T06:09:45;19.23;;;5.13;;
24521;SDS011;12680;57.804;12.190;2023-03-24T06:12:12;23.02;;;6.45;;
24521;SDS011;12680;57.804;12.190;2023-03-24T06:14:41;19.35;;;5.35;;
24521;SDS011;12680;57.804;12.190;2023-03-24T06:17:08;22.05;;;5.85;;
24521;SDS011;12680;57.804;12.190;2023-03-24T06:19:42;21.15;;;7.20;;
24521;SDS011;12680;57.804;12.190;2023-03-24T06:22:18;24.38;;;7.68;;
24521;SDS011;12680;57.804;12.190;2023-03-24T06:24:45;20.05;;;6.97;;
24521;SDS011;12680;57.804;12.190;2023-03-24T06:27:13;21.80;;;7.13;;
24521;SDS011;12680;57.804;12.190;2023-03-24T06:29:39;21.27;;;6.70;;
24521;SDS011;12680;57.804;12.190;2023-03-24T06:32:09;19.08;;;7.30;;
24521;SDS011;12680;57.804;12.190;2023-03-24T06:34:36;22.95;;;7.38;;
24521;SDS011;12680;57.804;12.190;2023-03-24T06:37:06;15.50;;;7.43;;
24521;SDS011;12680;57.804;12.190;2023-03-24T06:39:33;14.00;;;6.82;;
24521;SDS011;12680;57.804;12.190;2023-03-24T06:41:59;16.30;;;6.10;;
24521;SDS011;12680;57.804;12.190;2023-03-24T06:44:26;12.10;;;7.30;;
24521;SDS011;12680;57.804;12.190;2023-03-24T06:46:53;19.25;;;7.25;;
24521;SDS011;12680;57.804;12.190;2023-03-24T06:49:20;13.93;;;7.00;;
24521;SDS011;12680;57.804;12.190;2023-03-24T06:51:46;17.85;;;6.65;;
24521;SDS011;12680;57.804;12.190;2023-03-24T06:54:13;16.08;;;6.25;;
24521;SDS011;12680;57.804;12.190;2023-03-24T06:56:40;14.02;;;6.13;;
24521;SDS011;12680;57.804;12.190;2023-03-24T06:59:07;16.02;;;5.45;;
24521;SDS011;12680;57.804;12.190;2023-03-24T07:01:34;10.02;;;5.32;;
24521;SDS011;12680;57.804;12.190;2023-03-24T07:04:02;9.48;;;5.50;;
24521;SDS011;12680;57.804;12.190;2023-03-24T07:06:29;11.00;;;4.60;;
24521;SDS011;12680;57.804;12.190;2023-03-24T07:09:01;11.20;;;4.43;;
24521;SDS011;12680;57.804;12.190;2023-03-24T07:11:27;15.00;;;4.50;;
24521;SDS011;12680;57.804;12.190;2023-03-24T07:13:54;9.98;;;3.92;;
24521;SDS011;12680;57.804;12.190;2023-03-24T07:16:21;6.65;;;4.13;;
24521;SDS011;12680;57.804;12.190;2023-03-24T07:18:48;9.25;;;4.30;;
24521;SDS011;12680;57.804;12.190;2023-03-24T07:21:15;8.52;;;3.70;;
24521;SDS011;12680;57.804;12.190;2023-03-24T07:23:42;6.00;;;3.63;;
24521;SDS011;12680;57.804;12.190;2023-03-24T07:26:09;10.52;;;4.78;;
24521;SDS011;12680;57.804;12.190;2023-03-24T07:28:35;7.53;;;3.95;;
24521;SDS011;12680;57.804;12.190;2023-03-24T07:31:03;7.32;;;2.85;;
24521;SDS011;12680;57.804;12.190;2023-03-24T07:33:32;4.82;;;2.58;;
24521;SDS011;12680;57.804;12.190;2023-03-24T07:35:58;8.88;;;3.05;;
24521;SDS011;12680;57.804;12.190;2023-03-24T07:38:25;7.25;;;2.50;;
24521;SDS011;12680;57.804;12.190;2023-03-24T07:40:52;8.13;;;2.60;;
24521;SDS011;12680;57.804;12.190;2023-03-24T07:43:19;5.72;;;2.15;;
24521;SDS011;12680;57.804;12.190;2023-03-24T07:45:47;5.18;;;2.17;;
24521;SDS011;12680;57.804;12.190;2023-03-24T07:48:14;5.18;;;2.22;;
24521;SDS011;12680;57.804;12.190;2023-03-24T07:50:41;3.83;;;2.30;;
24521;SDS011;12680;57.804;12.190;2023-03-24T07:53:08;4.00;;;1.85;;
24521;SDS011;12680;57.804;12.190;2023-03-24T07:55:37;5.82;;;1.80;;
24521;SDS011;12680;57.804;12.190;2023-03-24T07:58:04;2.72;;;1.63;;
24521;SDS011;12680;57.804;12.190;2023-03-24T08:00:31;3.63;;;2.05;;
24521;SDS011;12680;57.804;12.190;2023-03-24T08:02:58;4.22;;;1.90;;
24521;SDS011;12680;57.804;12.190;2023-03-24T08:05:27;3.88;;;1.73;;
24521;SDS011;12680;57.804;12.190;2023-03-24T08:07:55;3.17;;;2.35;;
24521;SDS011;12680;57.804;12.190;2023-03-24T08:10:24;2.92;;;1.73;;
24521;SDS011;12680;57.804;12.190;2023-03-24T08:12:52;2.72;;;1.58;;
24521;SDS011;12680;57.804;12.190;2023-03-24T08:15:19;1.90;;;1.50;;
24521;SDS011;12680;57.804;12.190;2023-03-24T08:17:47;4.68;;;1.83;;
24521;SDS011;12680;57.804;12.190;2023-03-24T08:20:15;4.60;;;2.67;;
24521;SDS011;12680;57.804;12.190;2023-03-24T08:22:43;4.00;;;1.97;;
24521;SDS011;12680;57.804;12.190;2023-03-24T08:25:18;6.10;;;3.17;;
24521;SDS011;12680;57.804;12.190;2023-03-24T08:27:47;3.03;;;2.15;;
24521;SDS011;12680;57.804;12.190;2023-03-24T08:30:21;2.10;;;1.10;;
24521;SDS011;12680;57.804;12.190;2023-03-24T08:32:51;1.98;;;1.08;;
24521;SDS011;12680;57.804;12.190;2023-03-24T08:35:23;2.00;;;1.33;;
24521;SDS011;12680;57.804;12.190;2023-03-24T08:37:52;1.58;;;1.15;;
24521;SDS011;12680;57.804;12.190;2023-03-24T08:40:20;1.00;;;0.90;;
24521;SDS011;12680;57.804;12.190;2023-03-24T08:42:50;1.05;;;0.95;;
24521;SDS011;12680;57.804;12.190;2023-03-24T08:45:22;3.55;;;1.02;;
24521;SDS011;12680;57.804;12.190;2023-03-24T08:47:53;2.83;;;1.00;;
24521;SDS011;12680;57.804;12.190;2023-03-24T08:50:21;0.73;;;0.68;;
24521;SDS011;12680;57.804;12.190;2023-03-24T08:52:49;0.75;;;0.73;;
24521;SDS011;12680;57.804;12.190;2023-03-24T08:55:17;2.17;;;0.90;;
24521;SDS011;12680;57.804;12.190;2023-03-24T08:57:44;1.55;;;0.90;;
24521;SDS011;12680;57.804;12.190;2023-03-24T09:00:11;1.27;;;0.95;;
24521;SDS011;12680;57.804;12.190;2023-03-24T09:02:58;2.28;;;0.90;;
24521;SDS011;12680;57.804;12.190;2023-03-24T09:05:26;0.90;;;0.90;;
24521;SDS011;12680;57.804;12.190;2023-03-24T09:08:14;0.50;;;0.50;;
24521;SDS011;12680;57.804;12.190;2023-03-24T09:10:43;0.88;;;0.55;;
24521;SDS011;12680;57.804;12.190;2023-03-24T09:13:12;0.90;;;0.60;;
24521;SDS011;12680;57.804;12.190;2023-03-24T09:15:44;0.63;;;0.63;;
24521;SDS011;12680;57.804;12.190;2023-03-24T09:18:12;1.05;;;0.52;;
24521;SDS011;12680;57.804;12.190;2023-03-24T09:20:38;1.58;;;0.90;;
24521;SDS011;12680;57.804;12.190;2023-03-24T09:23:05;1.08;;;0.63;;
24521;SDS011;12680;57.804;12.190;2023-03-24T09:25:32;0.70;;;0.60;;
24521;SDS011;12680;57.804;12.190;2023-03-24T09:27:58;0.82;;;0.50;;
24521;SDS011;12680;57.804;12.190;2023-03-24T09:30:26;1.13;;;0.60;;
24521;SDS011;12680;57.804;12.190;2023-03-24T09:32:56;1.15;;;0.57;;
24521;SDS011;12680;57.804;12.190;2023-03-24T09:35:24;1.48;;;0.70;;
24521;SDS011;12680;57.804;12.190;2023-03-24T09:37:53;0.50;;;0.50;;
24521;SDS011;12680;57.804;12.190;2023-03-24T09:40:24;2.25;;;0.60;;
24521;SDS011;12680;57.804;12.190;2023-03-24T09:43:07;0.85;;;0.40;;
24521;SDS011;12680;57.804;12.190;2023-03-24T09:45:52;1.10;;;0.60;;
24521;SDS011;12680;57.804;12.190;2023-03-24T09:48:34;0.77;;;0.45;;
24521;SDS011;12680;57.804;12.190;2023-03-24T09:51:11;0.70;;;0.43;;
24521;SDS011;12680;57.804;12.190;2023-03-24T09:53:51;0.57;;;0.55;;
24521;SDS011;12680;57.804;12.190;2023-03-24T09:56:31;0.60;;;0.60;;
24521;SDS011;12680;57.804;12.190;2023-03-24T09:59:02;0.30;;;0.30;;
24521;SDS011;12680;57.804;12.190;2023-03-24T10:01:37;1.67;;;0.40;;
24521;SDS011;12680;57.804;12.190;2023-03-24T10:04:06;0.40;;;0.40;;
24521;SDS011;12680;57.804;12.190;2023-03-24T10:06:40;1.35;;;0.50;;
24521;SDS011;12680;57.804;12.190;2023-03-24T10:09:14;0.47;;;0.30;;
24521;SDS011;12680;57.804;12.190;2023-03-24T10:14:55;0.32;;;0.32;;
24521;SDS011;12680;57.804;12.190;2023-03-24T10:17:42;0.30;;;0.30;;
24521;SDS011;12680;57.804;12.190;2023-03-24T10:23:16;0.40;;;0.40;;
24521;SDS011;12680;57.804;12.190;2023-03-24T10:34:49;0.50;;;0.50;;
24521;SDS011;12680;57.804;12.190;2023-03-24T10:37:25;0.55;;;0.55;;
24521;SDS011;12680;57.804;12.190;2023-03-24T10:39:55;2.78;;;0.98;;
24521;SDS011;12680;57.804;12.190;2023-03-24T10:45:04;2.55;;;1.20;;
24521;SDS011;12680;57.804;12.190;2023-03-24T10:47:31;1.75;;;1.40;;
24521;SDS011;12680;57.804;12.190;2023-03-24T10:50:00;1.70;;;1.42;;
24521;SDS011;12680;57.804;12.190;2023-03-24T10:52:38;1.90;;;1.52;;
24521;SDS011;12680;57.804;12.190;2023-03-24T10:55:16;2.15;;;1.95;;
24521;SDS011;12680;57.804;12.190;2023-03-24T10:57:45;3.08;;;2.38;;
24521;SDS011;12680;57.804;12.190;2023-03-24T11:00:16;2.38;;;2.00;;
24521;SDS011;12680;57.804;12.190;2023-03-24T11:02:53;2.58;;;1.90;;
24521;SDS011;12680;57.804;12.190;2023-03-24T11:05:28;3.17;;;2.33;;
24521;SDS011;12680;57.804;12.190;2023-03-24T11:08:09;4.22;;;2.80;;
24521;SDS011;12680;57.804;12.190;2023-03-24T11:10:43;4.72;;;2.42;;
24521;SDS011;12680;57.804;12.190;2023-03-24T11:13:25;4.68;;;2.55;;
24521;SDS011;12680;57.804;12.190;2023-03-24T11:18:20;5.97;;;2.40;;
24521;SDS011;12680;57.804;12.190;2023-03-24T11:21:00;5.25;;;2.50;;
24521;SDS011;12680;57.804;12.190;2023-03-24T11:23:38;6.45;;;2.83;;
24521;SDS011;12680;57.804;12.190;2023-03-24T11:26:11;6.28;;;2.55;;
24521;SDS011;12680;57.804;12.190;2023-03-24T11:28:44;6.43;;;2.42;;
24521;SDS011;12680;57.804;12.190;2023-03-24T11:31:12;6.15;;;2.03;;
24521;SDS011;12680;57.804;12.190;2023-03-24T11:39:01;6.85;;;2.10;;
24521;SDS011;12680;57.804;12.190;2023-03-24T11:41:31;3.40;;;1.98;;
24521;SDS011;12680;57.804;12.190;2023-03-24T11:46:43;2.83;;;1.73;;
24521;SDS011;12680;57.804;12.190;2023-03-24T11:49:17;5.03;;;1.80;;
24521;SDS011;12680;57.804;12.190;2023-03-24T11:51:48;3.47;;;1.63;;
24521;SDS011;12680;57.804;12.190;2023-03-24T11:54:18;4.00;;;1.63;;
24521;SDS011;12680;57.804;12.190;2023-03-24T11:56:52;5.20;;;2.13;;
24521;SDS011;12680;57.804;12.190;2023-03-24T12:08:32;3.33;;;1.70;;
24521;SDS011;12680;57.804;12.190;2023-03-24T12:13:32;4.68;;;1.70;;
24521;SDS011;12680;57.804;12.190;2023-03-24T12:18:35;2.77;;;1.27;;
24521;SDS011;12680;57.804;12.190;2023-03-24T12:26:59;7.50;;;2.10;;
24521;SDS011;12680;57.804;12.190;2023-03-24T12:40:30;7.60;;;1.88;;
24521;SDS011;12680;57.804;12.190;2023-03-24T12:43:09;5.95;;;1.52;;
24521;SDS011;12680;57.804;12.190;2023-03-24T12:45:56;4.63;;;2.10;;
24521;SDS011;12680;57.804;12.190;2023-03-24T12:53:58;5.43;;;1.75;;
24521;SDS011;12680;57.804;12.190;2023-03-24T12:56:48;10.45;;;2.60;;
24521;SDS011;12680;57.804;12.190;2023-03-24T12:59:21;8.55;;;2.63;;
24521;SDS011;12680;57.804;12.190;2023-03-24T13:01:51;6.20;;;2.63;;
24521;SDS011;12680;57.804;12.190;2023-03-24T13:04:41;3.00;;;1.65;;
24521;SDS011;12680;57.804;12.190;2023-03-24T13:07:11;3.65;;;1.67;;
24521;SDS011;12680;57.804;12.190;2023-03-24T13:09:49;4.57;;;1.38;;
24521;SDS011;12680;57.804;12.190;2023-03-24T13:12:22;4.35;;;1.90;;
24521;SDS011;12680;57.804;12.190;2023-03-24T13:17:40;2.38;;;1.02;;
24521;SDS011;12680;57.804;12.190;2023-03-24T13:20:15;4.05;;;1.10;;
24521;SDS011;12680;57.804;12.190;2023-03-24T13:22:51;1.17;;;0.70;;
24521;SDS011;12680;57.804;12.190;2023-03-24T13:25:29;2.03;;;0.70;;
24521;SDS011;12680;57.804;12.190;2023-03-24T13:28:16;1.45;;;0.70;;
24521;SDS011;12680;57.804;12.190;2023-03-24T13:30:54;3.75;;;0.70;;
24521;SDS011;12680;57.804;12.190;2023-03-24T13:33:23;1.42;;;0.52;;
24521;SDS011;12680;57.804;12.190;2023-03-24T13:38:58;2.55;;;0.63;;
24521;SDS011;12680;57.804;12.190;2023-03-24T13:41:31;0.98;;;0.52;;
24521;SDS011;12680;57.804;12.190;2023-03-24T13:44:36;1.10;;;0.85;;
24521;SDS011;12680;57.804;12.190;2023-03-24T13:49:44;3.83;;;0.75;;
24521;SDS011;12680;57.804;12.190;2023-03-24T13:52:36;2.20;;;0.70;;
24521;SDS011;12680;57.804;12.190;2023-03-24T13:55:33;2.67;;;0.70;;
24521;SDS011;12680;57.804;12.190;2023-03-24T13:58:22;3.80;;;1.15;;
24521;SDS011;12680;57.804;12.190;2023-03-24T14:03:34;1.92;;;1.10;;
24521;SDS011;12680;57.804;12.190;2023-03-24T14:14:04;4.32;;;0.73;;
24521;SDS011;12680;57.804;12.190;2023-03-24T14:16:41;4.20;;;0.73;;
24521;SDS011;12680;57.804;12.190;2023-03-24T14:19:28;2.00;;;0.90;;
24521;SDS011;12680;57.804;12.190;2023-03-24T14:22:09;3.63;;;0.60;;
24521;SDS011;12680;57.804;12.190;2023-03-24T14:24:42;2.67;;;1.30;;
24521;SDS011;12680;57.804;12.190;2023-03-24T14:29:58;1.25;;;0.73;;
24521;SDS011;12680;57.804;12.190;2023-03-24T14:32:56;1.65;;;0.68;;
24521;SDS011;12680;57.804;12.190;2023-03-24T14:38:02;1.90;;;0.75;;
24521;SDS011;12680;57.804;12.190;2023-03-24T14:40:35;2.38;;;1.00;;
24521;SDS011;12680;57.804;12.190;2023-03-24T14:45:55;5.25;;;1.75;;
24521;SDS011;12680;57.804;12.190;2023-03-24T14:48:30;5.55;;;1.33;;
24521;SDS011;12680;57.804;12.190;2023-03-24T14:54:14;7.13;;;2.33;;
24521;SDS011;12680;57.804;12.190;2023-03-24T14:56:50;5.90;;;1.70;;
24521;SDS011;12680;57.804;12.190;2023-03-24T14:59:40;8.55;;;2.00;;
24521;SDS011;12680;57.804;12.190;2023-03-24T15:02:13;10.75;;;1.90;;
24521;SDS011;12680;57.804;12.190;2023-03-24T15:08:02;5.47;;;1.70;;
24521;SDS011;12680;57.804;12.190;2023-03-24T15:13:22;10.13;;;2.55;;
24521;SDS011;12680;57.804;12.190;2023-03-24T15:21:39;16.88;;;2.97;;
24521;SDS011;12680;57.804;12.190;2023-03-24T15:24:22;13.15;;;3.83;;
24521;SDS011;12680;57.804;12.190;2023-03-24T15:26:53;11.82;;;3.22;;
24521;SDS011;12680;57.804;12.190;2023-03-24T15:29:34;15.63;;;3.85;;
24521;SDS011;12680;57.804;12.190;2023-03-24T15:32:02;11.07;;;3.35;;
24521;SDS011;12680;57.804;12.190;2023-03-24T15:34:34;14.40;;;3.83;;
24521;SDS011;12680;57.804;12.190;2023-03-24T15:37:04;12.88;;;3.40;;
24521;SDS011;12680;57.804;12.190;2023-03-24T15:39:46;17.33;;;4.28;;
24521;SDS011;12680;57.804;12.190;2023-03-24T15:42:16;15.82;;;3.78;;
24521;SDS011;12680;57.804;12.190;2023-03-24T15:44:47;12.18;;;2.78;;
24521;SDS011;12680;57.804;12.190;2023-03-24T15:49:59;12.70;;;3.38;;
24521;SDS011;12680;57.804;12.190;2023-03-24T15:55:22;13.13;;;3.50;;
24521;SDS011;12680;57.804;12.190;2023-03-24T15:57:55;15.20;;;3.13;;
24521;SDS011;12680;57.804;12.190;2023-03-24T16:00:25;12.80;;;3.50;;
24521;SDS011;12680;57.804;12.190;2023-03-24T16:03:05;12.93;;;2.67;;
24521;SDS011;12680;57.804;12.190;2023-03-24T16:05:32;14.20;;;3.10;;
24521;SDS011;12680;57.804;12.190;2023-03-24T16:08:04;12.73;;;2.80;;
24521;SDS011;12680;57.804;12.190;2023-03-24T16:10:34;19.65;;;3.63;;
24521;SDS011;12680;57.804;12.190;2023-03-24T16:13:12;15.00;;;3.33;;
24521;SDS011;12680;57.804;12.190;2023-03-24T16:18:20;17.63;;;3.50;;
24521;SDS011;12680;57.804;12.190;2023-03-24T16:20:50;12.15;;;3.40;;
24521;SDS011;12680;57.804;12.190;2023-03-24T16:23:17;27.73;;;4.68;;
24521;SDS011;12680;57.804;12.190;2023-03-24T16:25:44;27.35;;;4.70;;
24521;SDS011;12680;57.804;12.190;2023-03-24T16:28:11;30.48;;;9.93;;
24521;SDS011;12680;57.804;12.190;2023-03-24T16:30:40;22.27;;;4.32;;
24521;SDS011;12680;57.804;12.190;2023-03-24T16:33:09;27.45;;;4.70;;
24521;SDS011;12680;57.804;12.190;2023-03-24T16:35:37;27.25;;;4.97;;
24521;SDS011;12680;57.804;12.190;2023-03-24T16:38:04;23.92;;;4.22;;
24521;SDS011;12680;57.804;12.190;2023-03-24T16:40:39;22.40;;;3.60;;
24521;SDS011;12680;57.804;12.190;2023-03-24T16:43:08;23.85;;;3.67;;
24521;SDS011;12680;57.804;12.190;2023-03-24T16:45:35;27.33;;;4.85;;
24521;SDS011;12680;57.804;12.190;2023-03-24T16:48:02;23.58;;;3.88;;
24521;SDS011;12680;57.804;12.190;2023-03-24T16:53:04;27.02;;;4.68;;
24521;SDS011;12680;57.804;12.190;2023-03-24T16:55:31;26.75;;;4.47;;
24521;SDS011;12680;57.804;12.190;2023-03-24T16:57:58;23.23;;;3.75;;
24521;SDS011;12680;57.804;12.190;2023-03-24T17:00:25;24.42;;;3.92;;
24521;SDS011;12680;57.804;12.190;2023-03-24T17:02:52;29.42;;;4.28;;
24521;SDS011;12680;57.804;12.190;2023-03-24T17:05:21;23.52;;;4.28;;
24521;SDS011;12680;57.804;12.190;2023-03-24T17:07:50;15.32;;;4.60;;
24521;SDS011;12680;57.804;12.190;2023-03-24T17:10:17;27.48;;;4.85;;
24521;SDS011;12680;57.804;12.190;2023-03-24T17:12:45;18.67;;;3.92;;
24521;SDS011;12680;57.804;12.190;2023-03-24T17:15:14;17.40;;;4.00;;
24521;SDS011;12680;57.804;12.190;2023-03-24T17:17:44;23.55;;;4.28;;
24521;SDS011;12680;57.804;12.190;2023-03-24T17:20:11;26.33;;;4.82;;
24521;SDS011;12680;57.804;12.190;2023-03-24T17:22:39;27.48;;;4.50;;
24521;SDS011;12680;57.804;12.190;2023-03-24T17:25:09;23.90;;;4.20;;
24521;SDS011;12680;57.804;12.190;2023-03-24T17:27:37;21.23;;;3.83;;
24521;SDS011;12680;57.804;12.190;2023-03-24T17:30:04;29.30;;;4.03;;
24521;SDS011;12680;57.804;12.190;2023-03-24T17:32:32;20.58;;;3.22;;
24521;SDS011;12680;57.804;12.190;2023-03-24T17:35:00;25.92;;;4.03;;
24521;SDS011;12680;57.804;12.190;2023-03-24T17:37:28;29.98;;;3.65;;
24521;SDS011;12680;57.804;12.190;2023-03-24T17:39:55;27.48;;;4.18;;
24521;SDS011;12680;57.804;12.190;2023-03-24T17:42:23;23.88;;;4.57;;
24521;SDS011;12680;57.804;12.190;2023-03-24T17:44:51;25.30;;;4.53;;
24521;SDS011;12680;57.804;12.190;2023-03-24T17:47:19;24.67;;;3.90;;